Time,TemperatureF,DewpointF,PressureIn,WindDirection,WindDirectionDegrees,WindSpeedMPH,WindSpeedGustMPH,Humidity,HourlyPrecipIn,Conditions,Clouds,dailyrainin,SoftwareType,DateUTC
2013-07-15 00:00:00,72.8,72.8,30.14,East,96,0.0,0.0,100,0.00,,---,0.04,VWS V14.01,2013-07-15 04:00:00,
2013-07-15 00:10:00,72.7,72.7,30.14,East,96,0.0,0.0,100,0.00,,---,0.00,VWS V14.01,2013-07-15 04:10:00,
2013-07-15 00:20:00,72.7,72.7,30.15,East,96,0.0,0.0,100,0.00,,---,0.00,VWS V14.01,2013-07-15 04:20:00,
2013-07-15 00:30:00,72.5,72.5,30.15,East,96,0.0,0.0,100,0.00,,---,0.00,VWS V14.01,2013-07-15 04:30:00,
2013-07-15 00:40:00,72.3,72.3,30.15,East,96,0.0,0.0,100,0.00,,---,0.00,VWS V14.01,2013-07-15 04:40:00,
2013-07-15 00:50:00,72.1,72.1,30.15,East,96,0.0,0.0,100,0.00,,---,0.00,VWS V14.01,2013-07-15 04:50:00,
2013-07-15 01:00:00,72.1,72.1,30.14,East,96,0.0,0.0,100,0.00,,---,0.00,VWS V14.01,2013-07-15 05:00:00,
2013-07-15 01:10:00,72.0,72.0,30.14,East,96,0.0,0.0,100,0.00,,---,0.00,VWS V14.01,2013-07-15 05:10:00,
2013-07-15 01:20:00,72.0,72.0,30.14,East,96,0.0,0.0,100,0.00,,---,0.00,VWS V14.01,2013-07-15 05:20:00,
2013-07-15 01:30:00,71.8,71.8,30.14,East,96,0.0,0.0,100,0.00,,---,0.00,VWS V14.01,2013-07-15 05:30:00,
2013-07-15 01:40:00,71.6,71.6,30.14,East,96,0.0,0.0,100,0.00,,---,0.00,VWS V14.01,2013-07-15 05:40:00,
2013-07-15 01:50:00,71.6,71.6,30.14,East,96,0.0,0.0,100,0.00,,---,0.00,VWS V14.01,2013-07-15 05:50:00,
2013-07-15 02:00:00,71.5,71.5,30.14,East,96,0.0,0.0,100,0.00,,---,0.00,VWS V14.01,2013-07-15 06:00:00,
2013-07-15 02:10:00,71.5,71.5,30.14,East,96,0.0,0.0,100,0.00,,---,0.00,VWS V14.01,2013-07-15 06:10:00,
2013-07-15 02:20:00,71.3,71.3,30.14,East,96,0.0,0.0,100,0.00,,---,0.00,VWS V14.01,2013-07-15 06:20:00,
2013-07-15 02:30:00,71.3,71.3,30.14,East,96,0.0,0.0,100,0.00,,---,0.00,VWS V14.01,2013-07-15 06:30:00,
2013-07-15 02:40:00,71.3,71.3,30.14,East,96,0.0,0.0,100,0.00,,---,0.00,VWS V14.01,2013-07-15 06:40:00,
2013-07-15 02:50:00,71.3,71.3,30.14,East,96,0.0,0.0,100,0.00,,---,0.00,VWS V14.01,2013-07-15 06:50:00,
2013-07-15 03:00:00,71.1,71.1,30.14,East,96,0.0,0.0,100,0.00,,---,0.00,VWS V14.01,2013-07-15 07:00:00,
2013-07-15 03:10:00,71.1,71.1,30.14,East,96,0.0,0.0,100,0.00,,---,0.00,VWS V14.01,2013-07-15 07:10:00,
2013-07-15 03:20:00,71.1,71.1,30.14,East,96,0.0,0.0,100,0.00,,---,0.00,VWS V14.01,2013-07-15 07:20:00,
2013-07-15 03:30:00,70.9,70.9,30.14,East,96,0.0,0.0,100,0.00,,---,0.00,VWS V14.01,2013-07-15 07:30:00,
2013-07-15 03:40:00,70.9,70.9,30.14,East,96,0.0,0.0,100,0.00,,---,0.00,VWS V14.01,2013-07-15 07:40:00,
2013-07-15 03:50:00,70.9,70.9,30.14,East,96,0.0,0.0,100,0.00,,---,0.00,VWS V14.01,2013-07-15 07:50:00,
2013-07-15 04:00:00,70.9,70.9,30.14,East,96,0.0,0.0,100,0.00,,---,0.00,VWS V14.01,2013-07-15 08:00:00,
2013-07-15 04:10:00,70.9,70.9,30.14,East,96,0.0,0.0,100,0.00,,---,0.00,VWS V14.01,2013-07-15 08:10:00,
2013-07-15 04:20:00,70.9,70.9,30.14,East,96,0.0,0.0,100,0.00,,---,0.00,VWS V14.01,2013-07-15 08:20:00,
2013-07-15 04:30:00,70.8,70.8,30.14,East,96,0.0,0.0,100,0.00,,---,0.00,VWS V14.01,2013-07-15 08:30:00,
2013-07-15 04:40:00,70.8,70.8,30.14,East,96,0.0,0.0,100,0.00,,---,0.00,VWS V14.01,2013-07-15 08:40:00,
2013-07-15 04:50:00,70.8,70.8,30.14,East,96,0.0,0.0,100,0.00,,---,0.00,VWS V14.01,2013-07-15 08:50:00,
2013-07-15 05:00:00,70.6,70.6,30.14,East,96,0.0,0.0,100,0.00,,---,0.00,VWS V14.01,2013-07-15 09:00:00,
2013-07-15 05:10:00,70.6,70.6,30.14,East,96,0.0,0.0,100,0.00,,---,0.00,VWS V14.01,2013-07-15 09:10:00,
2013-07-15 05:20:00,70.4,70.4,30.14,East,96,0.0,0.0,100,0.00,,---,0.00,VWS V14.01,2013-07-15 09:20:00,
2013-07-15 05:30:00,70.3,70.3,30.14,East,96,0.0,0.0,100,0.00,,---,0.00,VWS V14.01,2013-07-15 09:30:00,
2013-07-15 05:40:00,70.3,70.3,30.14,East,96,0.0,0.0,100,0.00,,---,0.00,VWS V14.01,2013-07-15 09:40:00,
2013-07-15 05:50:00,70.1,70.1,30.14,East,96,0.0,0.0,100,0.00,,---,0.00,VWS V14.01,2013-07-15 09:50:00,
2013-07-15 06:00:00,70.1,70.1,30.14,East,96,0.0,0.0,100,0.00,,---,0.00,VWS V14.01,2013-07-15 10:00:00,
2013-07-15 06:10:00,70.1,70.1,30.14,East,96,0.0,0.0,100,0.00,,---,0.00,VWS V14.01,2013-07-15 10:10:00,
2013-07-15 06:20:00,70.1,70.1,30.14,East,96,0.0,0.0,100,0.00,,---,0.00,VWS V14.01,2013-07-15 10:20:00,
2013-07-15 06:30:00,70.1,70.1,30.15,East,96,0.0,0.0,100,0.00,,---,0.00,VWS V14.01,2013-07-15 10:30:00,
2013-07-15 06:40:00,70.1,70.1,30.15,East,96,0.0,0.0,100,0.00,,---,0.00,VWS V14.01,2013-07-15 10:40:00,
2013-07-15 06:50:00,70.3,70.3,30.15,East,96,0.0,0.0,100,0.00,,---,0.00,VWS V14.01,2013-07-15 10:50:00,
2013-07-15 07:00:00,70.3,70.3,30.15,East,96,0.0,0.0,100,0.00,,---,0.00,VWS V14.01,2013-07-15 11:00:00,
2013-07-15 07:10:00,70.4,70.4,30.15,East,96,0.0,0.0,100,0.00,,---,0.00,VWS V14.01,2013-07-15 11:10:00,
2013-07-15 07:20:00,70.6,70.6,30.16,East,96,0.0,0.0,100,0.00,,---,0.00,VWS V14.01,2013-07-15 11:20:00,
2013-07-15 07:30:00,70.9,70.9,30.16,East,96,0.0,0.0,100,0.00,,---,0.00,VWS V14.01,2013-07-15 11:30:00,
2013-07-15 07:40:00,71.5,71.5,30.16,East,96,0.0,0.0,100,0.00,,---,0.00,VWS V14.01,2013-07-15 11:40:00,
2013-07-15 07:50:00,71.8,71.8,30.16,East,96,0.0,0.0,100,0.00,,---,0.00,VWS V14.01,2013-07-15 11:50:00,
2013-07-15 08:00:00,72.3,72.3,30.16,East,96,0.0,0.0,100,0.00,,---,0.00,VWS V14.01,2013-07-15 12:00:00,
2013-07-15 08:10:00,72.8,72.8,30.16,East,96,0.0,0.0,100,0.00,,---,0.00,VWS V14.01,2013-07-15 12:10:00,
2013-07-15 08:20:00,73.2,73.2,30.17,East,96,0.0,0.0,100,0.00,,---,0.00,VWS V14.01,2013-07-15 12:20:00,
2013-07-15 08:30:00,73.5,73.5,30.17,East,96,0.0,0.0,100,0.00,,---,0.00,VWS V14.01,2013-07-15 12:30:00,
2013-07-15 08:40:00,73.9,73.9,30.17,East,96,0.0,0.0,100,0.00,,---,0.00,VWS V14.01,2013-07-15 12:40:00,
2013-07-15 08:50:00,74.6,74.6,30.17,East,96,0.0,0.0,100,0.00,,---,0.00,VWS V14.01,2013-07-15 12:50:00,
2013-07-15 09:00:00,74.9,74.9,30.17,East,96,0.0,0.0,100,0.00,,---,0.00,VWS V14.01,2013-07-15 13:00:00,
2013-07-15 09:10:00,75.3,75.3,30.17,East,96,0.0,0.0,100,0.00,,---,0.00,VWS V14.01,2013-07-15 13:10:00,
2013-07-15 09:20:00,75.8,75.8,30.17,East,96,0.0,0.0,100,0.00,,---,0.00,VWS V14.01,2013-07-15 13:20:00,
2013-07-15 09:30:00,76.0,76.0,30.17,East,96,0.0,0.0,100,0.00,,---,0.00,VWS V14.01,2013-07-15 13:30:00,
2013-07-15 09:40:00,76.8,76.8,30.17,ESE,109,0.0,0.0,100,0.00,,---,0.00,VWS V14.01,2013-07-15 13:40:00,
2013-07-15 09:50:00,76.8,76.8,30.17,ENE,64,0.0,0.0,100,0.00,,---,0.00,VWS V14.01,2013-07-15 13:50:00,
2013-07-15 10:00:00,77.4,77.4,30.17,East,90,0.0,0.0,100,0.00,,---,0.00,VWS V14.01,2013-07-15 14:00:00,
2013-07-15 10:10:00,78.3,78.0,30.17,East,96,0.0,0.0,99,0.00,,---,0.00,VWS V14.01,2013-07-15 14:10:00,
2013-07-15 10:20:00,79.0,78.4,30.17,East,90,0.0,0.0,98,0.00,,---,0.00,VWS V14.01,2013-07-15 14:20:00,
2013-07-15 10:30:00,79.6,78.4,30.17,East,90,0.0,0.0,96,0.00,,---,0.00,VWS V14.01,2013-07-15 14:30:00,
2013-07-15 10:40:00,81.2,80.0,30.17,East,90,0.0,0.0,96,0.00,,---,0.00,VWS V14.01,2013-07-15 14:40:00,
2013-07-15 10:50:00,82.6,78.0,30.17,East,90,0.0,1.0,86,0.00,,---,0.00,VWS V14.01,2013-07-15 14:50:00,
2013-07-15 11:00:00,83.8,79.2,30.17,East,90,0.0,0.0,86,0.00,,---,0.00,VWS V14.01,2013-07-15 15:00:00,
2013-07-15 11:10:00,84.9,79.5,30.17,East,90,0.0,0.0,84,0.00,,---,0.00,VWS V14.01,2013-07-15 15:10:00,
2013-07-15 11:20:00,79.0,78.4,30.17,East,90,0.0,0.0,98,0.00,,---,0.00,VWS V14.01,2013-07-15 15:20:00,
2013-07-15 11:30:00,86.7,80.2,30.17,SSE,158,0.0,0.0,81,0.00,,---,0.00,VWS V14.01,2013-07-15 15:30:00,
2013-07-15 11:40:00,86.7,80.6,30.17,SSE,158,0.0,0.0,82,0.00,,---,0.00,VWS V14.01,2013-07-15 15:40:00,
2013-07-15 11:50:00,86.1,79.2,30.17,SSW,193,0.0,0.0,80,0.00,,---,0.00,VWS V14.01,2013-07-15 15:50:00,
2013-07-15 12:00:00,85.5,80.1,30.17,SSW,193,0.0,0.0,84,0.00,,---,0.00,VWS V14.01,2013-07-15 16:00:00,
2013-07-15 12:10:00,85.9,79.8,30.17,SSW,192,0.0,0.0,82,0.00,,---,0.00,VWS V14.01,2013-07-15 16:10:00,
2013-07-15 12:20:00,86.7,80.2,30.17,SSW,193,0.0,0.0,81,0.00,,---,0.00,VWS V14.01,2013-07-15 16:20:00,
2013-07-15 12:30:00,87.4,80.1,30.17,SE,134,0.0,0.0,79,0.00,,---,0.00,VWS V14.01,2013-07-15 16:30:00,
2013-07-15 12:40:00,88.0,79.1,30.17,NE,52,0.0,0.0,75,0.00,,---,0.00,VWS V14.01,2013-07-15 16:40:00,
2013-07-15 12:50:00,88.8,77.8,30.16,NE,55,0.0,1.0,70,0.00,,---,0.00,VWS V14.01,2013-07-15 16:50:00,
2013-07-15 13:00:00,90.1,80.3,30.15,NE,55,0.0,0.0,73,0.00,,---,0.00,VWS V14.01,2013-07-15 17:00:00,
2013-07-15 13:10:00,85.9,79.8,30.17,SSW,192,0.0,0.0,82,0.00,,---,0.00,VWS V14.01,2013-07-15 17:10:00,
2013-07-15 13:20:00,90.3,80.9,30.15,East,100,0.0,0.0,74,0.00,,---,0.00,VWS V14.01,2013-07-15 17:20:00,
2013-07-15 13:30:00,90.1,79.0,30.14,SE,136,0.0,0.0,70,0.00,,---,0.00,VWS V14.01,2013-07-15 17:30:00,
2013-07-15 13:40:00,90.5,79.4,30.14,SE,133,0.0,0.0,70,0.00,,---,0.00,VWS V14.01,2013-07-15 17:40:00,
2013-07-15 13:50:00,90.5,79.4,30.14,SE,131,0.0,0.0,70,0.00,,---,0.00,VWS V14.01,2013-07-15 17:50:00,
2013-07-15 14:00:00,91.2,79.6,30.14,SE,143,0.0,0.0,69,0.00,,---,0.00,VWS V14.01,2013-07-15 18:00:00,
2013-07-15 14:10:00,90.7,80.4,30.15,NE,55,0.0,0.0,72,0.00,,---,0.00,VWS V14.01,2013-07-15 18:10:00,
2013-07-15 14:20:00,92.3,79.8,30.13,SSE,154,0.0,0.0,67,0.00,,---,0.00,VWS V14.01,2013-07-15 18:20:00,
2013-07-15 14:30:00,90.1,79.0,30.14,SE,136,0.0,0.0,70,0.00,,---,0.00,VWS V14.01,2013-07-15 18:30:00,
2013-07-15 14:40:00,91.0,79.4,30.13,NE,55,0.0,1.0,69,0.00,,---,0.00,VWS V14.01,2013-07-15 18:40:00,
2013-07-15 14:50:00,91.4,79.8,30.13,NE,55,0.0,0.0,69,0.00,,---,0.00,VWS V14.01,2013-07-15 18:50:00,
2013-07-15 15:00:00,90.3,78.3,30.12,ENE,69,0.0,0.0,68,0.00,,---,0.00,VWS V14.01,2013-07-15 19:00:00,
2013-07-15 15:10:00,90.7,80.4,30.12,ENE,69,0.0,0.0,72,0.00,,---,0.00,VWS V14.01,2013-07-15 19:10:00,
2013-07-15 15:20:00,91.2,78.7,30.12,East,97,1.0,2.0,67,0.00,,---,0.00,VWS V14.01,2013-07-15 19:20:00,
2013-07-15 15:30:00,92.7,80.1,30.13,SSW,199,0.0,0.0,67,0.00,,---,0.00,VWS V14.01,2013-07-15 19:30:00,
2013-07-15 15:40:00,90.7,80.4,30.12,East,92,0.0,0.0,72,0.00,,---,0.00,VWS V14.01,2013-07-15 19:40:00,
2013-07-15 15:50:00,91.6,79.6,30.12,ESE,113,0.0,1.0,68,0.00,,---,0.00,VWS V14.01,2013-07-15 19:50:00,
2013-07-15 16:00:00,90.3,78.3,30.12,ENE,69,0.0,0.0,68,0.00,,---,0.00,VWS V14.01,2013-07-15 20:00:00,
2013-07-15 16:10:00,91.6,80.4,30.12,SSE,147,0.0,0.0,70,0.00,,---,0.00,VWS V14.01,2013-07-15 20:10:00,
2013-07-15 16:20:00,91.2,78.7,30.12,East,97,1.0,2.0,67,0.00,,---,0.00,VWS V14.01,2013-07-15 20:20:00,
2013-07-15 16:30:00,91.2,79.6,30.11,ESE,104,0.0,3.0,69,0.00,,---,0.00,VWS V14.01,2013-07-15 20:30:00,
2013-07-15 16:40:00,92.1,80.5,30.11,ESE,104,0.0,0.0,69,0.00,,---,0.00,VWS V14.01,2013-07-15 20:40:00,
2013-07-15 16:50:00,92.3,78.4,30.11,ESE,104,0.0,0.0,64,0.00,,---,0.00,VWS V14.01,2013-07-15 20:50:00,
2013-07-15 17:00:00,92.3,80.2,30.10,ESE,104,0.0,0.0,68,0.00,,---,0.00,VWS V14.01,2013-07-15 21:00:00,
2013-07-15 17:10:00,91.8,79.3,30.10,ESE,104,0.0,0.0,67,0.00,,---,0.00,VWS V14.01,2013-07-15 21:10:00,
2013-07-15 17:20:00,91.2,78.7,30.10,ESE,104,0.0,0.0,67,0.00,,---,0.00,VWS V14.01,2013-07-15 21:20:00,
2013-07-15 17:30:00,91.2,79.6,30.11,ESE,104,0.0,3.0,69,0.00,,---,0.00,VWS V14.01,2013-07-15 21:30:00,
2013-07-15 17:40:00,91.2,78.3,30.10,ESE,104,0.0,0.0,66,0.00,,---,0.00,VWS V14.01,2013-07-15 21:40:00,
2013-07-15 17:50:00,90.5,78.9,30.10,ESE,102,0.0,0.0,69,0.00,,---,0.00,VWS V14.01,2013-07-15 21:50:00,
2013-07-15 18:00:00,89.7,78.2,30.10,East,99,0.0,0.0,69,0.00,,---,0.00,VWS V14.01,2013-07-15 22:00:00,
2013-07-15 18:10:00,89.7,79.5,30.10,East,82,0.0,1.0,72,0.00,,---,0.00,VWS V14.01,2013-07-15 22:10:00,
2013-07-15 18:20:00,89.3,79.5,30.10,East,82,0.0,0.0,73,0.00,,---,0.00,VWS V14.01,2013-07-15 22:20:00,
2013-07-15 18:30:00,88.4,79.1,30.09,East,82,0.0,0.0,74,0.00,,---,0.00,VWS V14.01,2013-07-15 22:30:00,
2013-07-15 18:40:00,87.8,78.5,30.09,East,82,0.0,0.0,74,0.00,,---,0.00,VWS V14.01,2013-07-15 22:40:00,
2013-07-15 18:50:00,87.2,78.7,30.10,East,82,0.0,0.0,76,0.00,,---,0.00,VWS V14.01,2013-07-15 22:50:00,
2013-07-15 19:00:00,86.5,78.4,30.10,East,82,0.0,0.0,77,0.00,,---,0.00,VWS V14.01,2013-07-15 23:00:00,
2013-07-15 19:10:00,89.7,79.5,30.10,East,82,0.0,1.0,72,0.00,,---,0.00,VWS V14.01,2013-07-15 23:10:00,
2013-07-15 19:20:00,85.7,78.4,30.10,East,82,0.0,0.0,79,0.00,,---,0.00,VWS V14.01,2013-07-15 23:20:00,
2013-07-15 19:30:00,88.4,79.1,30.09,East,82,0.0,0.0,74,0.00,,---,0.00,VWS V14.01,2013-07-15 23:30:00,
2013-07-15 19:40:00,84.7,77.5,30.10,East,82,0.0,0.0,79,0.00,,---,0.00,VWS V14.01,2013-07-15 23:40:00,
2013-07-15 19:50:00,84.5,77.3,30.10,East,82,0.0,0.0,79,0.00,,---,0.00,VWS V14.01,2013-07-15 23:50:00,
2013-07-15 20:00:00,84.0,77.2,30.10,East,82,0.0,0.0,80,0.00,,---,0.00,VWS V14.01,2013-07-16 00:00:00,
2013-07-15 20:10:00,85.9,77.9,30.10,East,82,0.0,0.0,77,0.00,,---,0.00,VWS V14.01,2013-07-16 00:10:00,
2013-07-15 20:20:00,83.4,77.0,30.10,East,82,0.0,0.0,81,0.00,,---,0.00,VWS V14.01,2013-07-16 00:20:00,
2013-07-15 20:30:00,85.3,78.1,30.10,East,82,0.0,0.0,79,0.00,,---,0.00,VWS V14.01,2013-07-16 00:30:00,
2013-07-15 20:40:00,84.7,77.5,30.10,East,82,0.0,0.0,79,0.00,,---,0.00,VWS V14.01,2013-07-16 00:40:00,
2013-07-15 20:50:00,81.4,76.1,30.09,East,82,0.0,0.0,84,0.00,,---,0.00,VWS V14.01,2013-07-16 00:50:00,
2013-07-15 21:00:00,80.7,76.5,30.09,East,82,0.0,0.0,87,0.00,,---,0.00,VWS V14.01,2013-07-16 01:00:00,
2013-07-15 21:10:00,80.3,76.4,30.09,East,82,0.0,0.0,88,0.00,,---,0.00,VWS V14.01,2013-07-16 01:10:00,
2013-07-15 21:20:00,79.9,76.0,30.10,East,82,0.0,0.0,88,0.00,,---,0.00,VWS V14.01,2013-07-16 01:20:00,
2013-07-15 21:30:00,79.6,76.1,30.10,East,82,0.0,0.0,89,0.00,,---,0.00,VWS V14.01,2013-07-16 01:30:00,
2013-07-15 21:40:00,79.2,76.7,30.10,East,82,0.0,0.0,92,0.00,,---,0.00,VWS V14.01,2013-07-16 01:40:00,
2013-07-15 21:50:00,78.6,75.8,30.10,East,82,0.0,0.0,91,0.00,,---,0.00,VWS V14.01,2013-07-16 01:50:00,
2013-07-15 22:00:00,80.7,76.5,30.09,East,82,0.0,0.0,87,0.00,,---,0.00,VWS V14.01,2013-07-16 02:00:00,
2013-07-15 22:10:00,78.1,75.9,30.11,East,82,0.0,0.0,93,0.00,,---,0.00,VWS V14.01,2013-07-16 02:10:00,
2013-07-15 22:20:00,77.6,76.1,30.10,East,82,0.0,0.0,95,0.00,,---,0.00,VWS V14.01,2013-07-16 02:20:00,
2013-07-15 22:30:00,77.2,76.3,30.10,East,82,0.0,0.0,97,0.00,,---,0.00,VWS V14.01,2013-07-16 02:30:00,
2013-07-15 22:40:00,76.7,75.8,30.10,East,82,0.0,0.0,97,0.00,,---,0.00,VWS V14.01,2013-07-16 02:40:00,
2013-07-15 22:50:00,78.6,75.8,30.10,East,82,0.0,0.0,91,0.00,,---,0.00,VWS V14.01,2013-07-16 02:50:00,
2013-07-15 23:00:00,76.1,76.1,30.10,East,82,0.0,0.0,100,0.00,,---,0.00,VWS V14.01,2013-07-16 03:00:00,
2013-07-15 23:10:00,75.8,75.8,30.10,East,82,0.0,0.0,100,0.00,,---,0.00,VWS V14.01,2013-07-16 03:10:00,
2013-07-15 23:20:00,75.6,75.6,30.10,East,82,0.0,0.0,100,0.00,,---,0.00,VWS V14.01,2013-07-16 03:20:00,
2013-07-15 23:30:00,75.6,74.7,30.10,East,82,0.0,0.0,97,0.00,,---,0.00,VWS V14.01,2013-07-16 03:30:00,
2013-07-15 23:40:00,75.8,74.9,30.10,East,82,0.0,0.0,97,0.00,,---,0.00,VWS V14.01,2013-07-16 03:40:00,
2013-07-15 23:50:00,75.8,74.9,30.10,East,82,0.0,0.0,97,0.00,,---,0.00,VWS V14.01,2013-07-16 03:50:00,